Sti Gauntlet — V7HH9 — position and weather

sailwx.info

Track history (hours):
 
Tides and Currents Weather Stations Pressure Air Temp Water Temp Dewpoint Dewpoint Depression Visibility Wind Speed Wind Dir Waves Ship Positions

Sti Gauntlet

Last reported at 2018-Oct-22 00:06 UTC. Time now 2018-Oct-22 23:10 UTC.
Position N 39°36' E 001°43'.

Length 249 m; draft 8.8 m.

Type: Ship. MMSI: 538005825.

Date/timePositionNaut miles runAvg speedWind from/ knotsBaromVisibWave heightAir tempDewpointWater temp
2018-Oct-22 00:06N 39°36' E 001°43'0 1.1
2018-Oct-22 00:03N 39°36' E 001°43'  
2018-Oct-17 20:00N 41°02' E 002°07'713.2
2018-Oct-17 19:30N 41°09' E 002°08'613.0
2018-Oct-17 19:03N 41°15' E 002°10'113.3
2018-Oct-17 19:00N 41°15' E 002°11'5 9.8
2018-Oct-17 18:30N 41°20' E 002°10'0 0.0
2018-Oct-15 20:57N 41°20' E 002°10'0 0.1
2018-Oct-15 20:31N 41°20' E 002°10'1 1.7
2018-Oct-15 20:03N 41°20' E 002°10'0 0.8
2018-Oct-15 20:00N 41°20' E 002°10'2 4.0
2018-Oct-15 19:31N 41°18' E 002°11'1 1.7
2018-Oct-15 19:04N 41°17' E 002°12'0 0.3
2018-Oct-15 19:01N 41°17' E 002°12'2 3.8
2018-Oct-15 18:30N 41°15' E 002°12'0 0.1
2018-Oct-15 18:03N 41°15' E 002°12'0 0.4
2018-Oct-15 18:00N 41°15' E 002°12'0 0.2
2018-Oct-15 17:31N 41°15' E 002°12'1 1.3
2018-Oct-15 17:04N 41°15' E 002°12'0 5.3
2018-Oct-15 17:01N 41°14' E 002°12'4 7.3
2018-Oct-15 16:30N 41°11' E 002°11'511.6
2018-Oct-15 16:03N 41°06' E 002°10'112.2
2018-Oct-15 16:00N 41°05' E 002°10'712.7
2018-Oct-15 15:28N 40°58' E 002°09'28312.5
2018-Oct-14 16:50N 36°49' W 000°46'20613.4
2018-Oct-14 01:26N 36°01' W 004°55'1013.6
2018-Oct-14 00:40N 35°60' W 005°07'213.3
2018-Oct-14 00:30N 35°59' W 005°10'612.8
2018-Oct-14 00:03N 36°00' W 005°17'112.2
2018-Oct-14 00:00N 36°00' W 005°18'612.0
2018-Oct-13 23:30N 35°58' W 005°25'1113.7
2018-Oct-13 22:42N 35°55' W 005°38'313.1
2018-Oct-13 22:27N 35°55' W 005°42'512.8
2018-Oct-13 22:03N 35°55' W 005°48'112.6
2018-Oct-13 22:00N 35°54' W 005°49'812.8
2018-Oct-13 21:23N 35°54' W 005°59'4612.9
2018-Oct-13 17:51N 35°50' W 006°55'513.2
2018-Oct-13 17:29N 35°49' W 007°01'613.3
2018-Oct-13 17:01N 35°48' W 007°08'013.7
2018-Oct-13 17:00N 35°48' W 007°09'713.7
2018-Oct-13 16:28N 35°46' W 007°18'1312.9
2018-Oct-13 15:26N 35°44' W 007°34'513.3
2018-Oct-13 15:01N 35°43' W 007°40'012.8
2018-Oct-13 15:00N 35°43' W 007°41'813.5
2018-Oct-13 14:27N 35°42' W 007°50'1313.3
2018-Oct-13 13:29N 35°40' W 008°05'713.2
2018-Oct-13 12:56N 35°39' W 008°14'613.1
2018-Oct-13 12:29N 35°38' W 008°21'1013.0
2018-Oct-13 11:45N 35°36' W 008°33'512.9
2018-Oct-13 11:22N 35°36' W 008°39'3512.5
2018-Oct-13 08:33N 35°29' W 009°21'312.6
2018-Oct-13 08:16N 35°28' W 009°26'1412.7
2018-Oct-13 07:09N 35°26' W 009°43'112.6
2018-Oct-13 07:03N 35°26' W 009°44'312.8
2018-Oct-13 06:49N 35°25' W 009°48'413.0
2018-Oct-13 06:29N 35°24' W 009°53'613.0
2018-Oct-13 06:02N 35°23' W 010°00'012.9
2018-Oct-13 06:00N 35°23' W 010°01'713.1
2018-Oct-13 05:30N 35°22' W 010°09'613.0
2018-Oct-13 05:03N 35°21' W 010°16'112.5
2018-Oct-13 05:01N 35°21' W 010°16'713.0
2018-Oct-13 04:29N 35°20' W 010°25'613.0
2018-Oct-13 04:03N 35°19' W 010°31'213.3
2018-Oct-13 03:56N 35°19' W 010°33'512.9
2018-Oct-13 03:31N 35°18' W 010°40'613.1
2018-Oct-13 03:03N 35°17' W 010°47'113.0
2018-Oct-13 02:56N 35°17' W 010°49'612.9
2018-Oct-13 02:31N 35°16' W 010°56'713.3
2018-Oct-13 01:59N 35°14' W 011°04'812.5
2018-Oct-13 01:22N 35°13' W 011°13'712.5
2018-Oct-13 00:49N 35°12' W 011°22'513.0
2018-Oct-13 00:25N 35°11' W 011°28'512.8
2018-Oct-13 00:03N 35°10' W 011°34'112.8
2018-Oct-12 23:59N 35°10' W 011°35'613.2
2018-Oct-12 23:30N 35°09' W 011°42'612.7
2018-Oct-12 23:03N 35°08' W 011°49'112.8
2018-Oct-12 23:01N 35°08' W 011°50'613.0
2018-Oct-12 22:31N 35°07' W 011°58'613.2
2018-Oct-12 22:04N 35°06' W 012°05'112.8
2018-Oct-12 22:01N 35°06' W 012°06'713.1
2018-Oct-12 21:27N 35°04' W 012°14'  
Track history (hours):
 
Tides and Currents Weather Stations Pressure Air Temp Water Temp Dewpoint Dewpoint Depression Visibility Wind Speed Wind Dir Waves Ship Positions

Sti Gauntlet

Last reported at 2018-Oct-22 00:06 UTC. Time now 2018-Oct-22 23:10 UTC.
Position N 39°36' E 001°43'.

Length 249 m; draft 8.8 m.

Type: Ship. MMSI: 538005825.

Date/timePositionNaut miles runAvg speedWind from/ knotsBaromVisibWave heightAir tempDewpointWater temp
2018-Oct-22 00:06N 39°36' E 001°43'0 1.1
2018-Oct-22 00:03N 39°36' E 001°43'  
2018-Oct-17 20:00N 41°02' E 002°07'713.2
2018-Oct-17 19:30N 41°09' E 002°08'613.0
2018-Oct-17 19:03N 41°15' E 002°10'113.3
2018-Oct-17 19:00N 41°15' E 002°11'5 9.8
2018-Oct-17 18:30N 41°20' E 002°10'0 0.0
2018-Oct-15 20:57N 41°20' E 002°10'0 0.1
2018-Oct-15 20:31N 41°20' E 002°10'1 1.7
2018-Oct-15 20:03N 41°20' E 002°10'0 0.8
2018-Oct-15 20:00N 41°20' E 002°10'2 4.0
2018-Oct-15 19:31N 41°18' E 002°11'1 1.7
2018-Oct-15 19:04N 41°17' E 002°12'0 0.3
2018-Oct-15 19:01N 41°17' E 002°12'2 3.8
2018-Oct-15 18:30N 41°15' E 002°12'0 0.1
2018-Oct-15 18:03N 41°15' E 002°12'0 0.4
2018-Oct-15 18:00N 41°15' E 002°12'0 0.2
2018-Oct-15 17:31N 41°15' E 002°12'1 1.3
2018-Oct-15 17:04N 41°15' E 002°12'0 5.3
2018-Oct-15 17:01N 41°14' E 002°12'4 7.3
2018-Oct-15 16:30N 41°11' E 002°11'511.6
2018-Oct-15 16:03N 41°06' E 002°10'112.2
2018-Oct-15 16:00N 41°05' E 002°10'712.7
2018-Oct-15 15:28N 40°58' E 002°09'28312.5
2018-Oct-14 16:50N 36°49' W 000°46'20613.4
2018-Oct-14 01:26N 36°01' W 004°55'1013.6
2018-Oct-14 00:40N 35°60' W 005°07'213.3
2018-Oct-14 00:30N 35°59' W 005°10'612.8
2018-Oct-14 00:03N 36°00' W 005°17'112.2
2018-Oct-14 00:00N 36°00' W 005°18'612.0
2018-Oct-13 23:30N 35°58' W 005°25'1113.7
2018-Oct-13 22:42N 35°55' W 005°38'313.1
2018-Oct-13 22:27N 35°55' W 005°42'512.8
2018-Oct-13 22:03N 35°55' W 005°48'112.6
2018-Oct-13 22:00N 35°54' W 005°49'812.8
2018-Oct-13 21:23N 35°54' W 005°59'4612.9
2018-Oct-13 17:51N 35°50' W 006°55'513.2
2018-Oct-13 17:29N 35°49' W 007°01'613.3
2018-Oct-13 17:01N 35°48' W 007°08'013.7
2018-Oct-13 17:00N 35°48' W 007°09'713.7
2018-Oct-13 16:28N 35°46' W 007°18'1312.9
2018-Oct-13 15:26N 35°44' W 007°34'513.3
2018-Oct-13 15:01N 35°43' W 007°40'012.8
2018-Oct-13 15:00N 35°43' W 007°41'813.5
2018-Oct-13 14:27N 35°42' W 007°50'1313.3
2018-Oct-13 13:29N 35°40' W 008°05'713.2
2018-Oct-13 12:56N 35°39' W 008°14'613.1
2018-Oct-13 12:29N 35°38' W 008°21'1013.0
2018-Oct-13 11:45N 35°36' W 008°33'512.9
2018-Oct-13 11:22N 35°36' W 008°39'3512.5
2018-Oct-13 08:33N 35°29' W 009°21'312.6
2018-Oct-13 08:16N 35°28' W 009°26'1412.7
2018-Oct-13 07:09N 35°26' W 009°43'112.6
2018-Oct-13 07:03N 35°26' W 009°44'312.8
2018-Oct-13 06:49N 35°25' W 009°48'413.0
2018-Oct-13 06:29N 35°24' W 009°53'613.0
2018-Oct-13 06:02N 35°23' W 010°00'012.9
2018-Oct-13 06:00N 35°23' W 010°01'713.1
2018-Oct-13 05:30N 35°22' W 010°09'613.0
2018-Oct-13 05:03N 35°21' W 010°16'112.5
2018-Oct-13 05:01N 35°21' W 010°16'713.0
2018-Oct-13 04:29N 35°20' W 010°25'613.0
2018-Oct-13 04:03N 35°19' W 010°31'213.3
2018-Oct-13 03:56N 35°19' W 010°33'512.9
2018-Oct-13 03:31N 35°18' W 010°40'613.1
2018-Oct-13 03:03N 35°17' W 010°47'113.0
2018-Oct-13 02:56N 35°17' W 010°49'612.9
2018-Oct-13 02:31N 35°16' W 010°56'713.3
2018-Oct-13 01:59N 35°14' W 011°04'812.5
2018-Oct-13 01:22N 35°13' W 011°13'712.5
2018-Oct-13 00:49N 35°12' W 011°22'513.0
2018-Oct-13 00:25N 35°11' W 011°28'512.8
2018-Oct-13 00:03N 35°10' W 011°34'112.8
2018-Oct-12 23:59N 35°10' W 011°35'613.2
2018-Oct-12 23:30N 35°09' W 011°42'612.7
2018-Oct-12 23:03N 35°08' W 011°49'112.8
2018-Oct-12 23:01N 35°08' W 011°50'613.0
2018-Oct-12 22:31N 35°07' W 011°58'613.2
2018-Oct-12 22:04N 35°06' W 012°05'112.8
2018-Oct-12 22:01N 35°06' W 012°06'713.1
2018-Oct-12 21:27N 35°04' W 012°14'  

Dump ship's entire track history